Weather History for Jackson, MN

Change the Weather History Date:

Saturday, May 4, 2013

  Actual Average Record
Temperature  
Mean Temperature 36 °F -  
Max Temperature 41 °F 63 °F 87 °F (2000)
Min Temperature 32 °F 41 °F 30 °F (2005)
Degree Days  
Heating Degree Days 28    
Moisture  
Dew Point 34 °F    
Average Humidity 93    
Maximum Humidity 100    
Minimum Humidity 81    
Precipitation  
Precipitation 0.09 in - - ()
Sea Level Pressure  
Sea Level Pressure 30.11 in    
Wind  
Wind Speed 17 mph (North)    
Max Wind Speed 22 mph    
Max Gust Speed 25 mph    
Visibility 5 miles    
Events Rain    
Averages and records for this station are not official NWS values.
T = Trace of Precipitation, MM = Missing Value Source: NWS Daily Summary

Daily Weather History Graph

Daily Weather History Graph

Search for Another Location

Airport:

Trip Planner

Search our weather history database for the weather conditions in past years. The results will help you decide how hot, cold, wet, or windy it might be!

Date:

Astronomy

May. 04, 2013 Rise Set
Actual Time 6:07 AM CDT 8:26 PM CDT
Civil Twilight 5:36 AM CDT 8:58 PM CDT
Nautical Twilight 4:56 AM CDT 9:37 PM CDT
Astronomical Twilight 4:12 AM CDT 10:22 PM CDT
Moon 3:16 AM CDT (5/4) 3:15 PM CDT (5/4)
Length of Visible Light 15h 22m
Length of Day
14h 18m
Waning Crescent, 27% of the Moon is Illuminated
May 4
Waning Crescent
May 9
New
May 17
First Quarter
May 24
Full
May 31
Last Quarter

Hourly Weather History & Observations

Time (CDT) Temp. Windchill Dew Point Humidity Pressure Visibility Wind Dir Wind Speed Gust Speed Precip Events Conditions
12:12 AM 33.8 °F 22.5 °F 32.0 °F 93% 30.10 in 10.0 mi NNE 19.6 mph - N/A   Overcast
12:32 AM 33.8 °F 22.2 °F 32.0 °F 93% 30.10 in 10.0 mi NNE 20.7 mph 25.3 mph N/A   Overcast
12:53 AM 33.8 °F 22.2 °F 32.0 °F 93% 30.09 in 10.0 mi NNE 20.7 mph 25.3 mph N/A   Overcast
1:12 AM 33.8 °F 21.9 °F 32.0 °F 93% 30.09 in 10.0 mi NNE 21.9 mph 25.3 mph N/A   Overcast
1:32 AM 33.8 °F 22.5 °F 32.0 °F 93% 30.09 in 7.0 mi NNE 19.6 mph 25.3 mph N/A   Overcast
1:53 AM 32.0 °F 20.1 °F 32.0 °F 100% 30.08 in 10.0 mi NNE 19.6 mph 25.3 mph N/A   Overcast
2:12 AM 32.0 °F 20.5 °F 32.0 °F 100% 30.07 in 5.0 mi North 18.4 mph - N/A   Overcast
2:32 AM 32.0 °F 20.8 °F 32.0 °F 100% 30.07 in 5.0 mi NNE 17.3 mph 21.9 mph N/A   Overcast
2:53 AM 32.0 °F 19.8 °F 32.0 °F 100% 30.07 in 10.0 mi NNE 20.7 mph 25.3 mph N/A   Overcast
3:12 AM 32.0 °F 21.2 °F 32.0 °F 100% 30.07 in 10.0 mi North 16.1 mph - N/A   Overcast
3:32 AM 32.0 °F 19.5 °F 32.0 °F 100% 30.06 in 10.0 mi NNE 21.9 mph - N/A   Overcast
3:53 AM 32.0 °F 20.1 °F 32.0 °F 100% 30.07 in 10.0 mi NNE 19.6 mph 24.2 mph N/A   Overcast
4:12 AM 32.0 °F 20.8 °F 32.0 °F 100% 30.07 in 5.0 mi NNE 17.3 mph 24.2 mph N/A   Overcast
4:33 AM 32.0 °F 20.8 °F 32.0 °F 100% 30.07 in 7.0 mi NNE 17.3 mph 24.2 mph N/A   Overcast
4:52 AM 32.0 °F 20.8 °F 32.0 °F 100% 30.07 in 5.0 mi North 17.3 mph - N/A   Overcast
5:12 AM 32.0 °F 20.8 °F 32.0 °F 100% 30.06 in 5.0 mi North 17.3 mph - N/A   Overcast
5:33 AM 32.0 °F 20.5 °F 32.0 °F 100% 30.07 in 5.0 mi NNE 18.4 mph 25.3 mph N/A   Overcast
5:52 AM 32.0 °F 20.1 °F 32.0 °F 100% 30.07 in 5.0 mi NNE 19.6 mph - N/A   Overcast
6:12 AM 32.0 °F 20.1 °F 32.0 °F 100% 30.07 in 5.0 mi North 19.6 mph - N/A   Overcast
6:33 AM 32.0 °F 20.8 °F 32.0 °F 100% 30.06 in 7.0 mi North 17.3 mph 24.2 mph N/A   Overcast
6:52 AM 32.0 °F 21.6 °F 32.0 °F 100% 30.06 in 7.0 mi North 15.0 mph 24.2 mph N/A   Overcast
7:12 AM 32.0 °F 21.6 °F 32.0 °F 100% 30.06 in 7.0 mi North 15.0 mph - N/A   Overcast
7:33 AM 32.0 °F 20.5 °F 32.0 °F 100% 30.07 in 5.0 mi North 18.4 mph 24.2 mph N/A   Overcast
7:52 AM 33.8 °F 22.8 °F 32.0 °F 93% 30.08 in 3.0 mi NNE 18.4 mph 24.2 mph N/A   Overcast
8:12 AM 33.8 °F 22.5 °F 32.0 °F 93% 30.08 in 2.0 mi NNE 19.6 mph - N/A   Overcast
8:33 AM 33.8 °F 22.5 °F 32.0 °F 93% 30.07 in 2.5 mi North 19.6 mph - N/A   Overcast
8:52 AM 33.8 °F 22.2 °F 32.0 °F 93% 30.07 in 3.0 mi North 20.7 mph - N/A   Overcast
9:12 AM 33.8 °F 23.5 °F 32.0 °F 93% 30.09 in 2.5 mi NNE 16.1 mph - N/A   Overcast
9:33 AM 33.8 °F 22.8 °F 32.0 °F 93% 30.09 in 2.5 mi NNE 18.4 mph 23.0 mph N/A   Overcast
9:52 AM 33.8 °F 22.8 °F 32.0 °F 93% 30.09 in 2.0 mi North 18.4 mph 23.0 mph N/A   Overcast
10:12 AM 33.8 °F 23.9 °F 32.0 °F 93% 30.09 in 2.5 mi North 15.0 mph 23.0 mph N/A   Overcast
10:33 AM 33.8 °F 23.9 °F 32.0 °F 93% 30.10 in 2.5 mi North 15.0 mph - 0.01 in   Overcast
10:52 AM 33.8 °F 22.8 °F 32.0 °F 93% 30.10 in 1.8 mi North 18.4 mph - 0.02 in Rain Light Rain
11:12 AM 35.6 °F 25.5 °F 32.0 °F 87% 30.10 in 2.0 mi North 17.3 mph 21.9 mph N/A   Overcast
11:33 AM 35.6 °F 25.9 °F 33.8 °F 93% 30.11 in 2.5 mi North 16.1 mph 23.0 mph N/A   Overcast
11:52 AM 35.6 °F 24.8 °F 33.8 °F 93% 30.10 in 1.5 mi North 19.6 mph 23.0 mph 0.03 in Rain Light Rain
12:12 PM 35.6 °F 25.9 °F 33.8 °F 93% 30.11 in 3.0 mi NNE 16.1 mph - N/A   Overcast
12:38 PM 35.6 °F 25.9 °F 33.8 °F 93% 30.12 in 1.2 mi NNE 16.1 mph 23.0 mph 0.02 in Rain Light Rain
12:52 PM 35.6 °F 26.6 °F 33.8 °F 93% 30.11 in 2.5 mi North 13.8 mph - 0.02 in   Overcast
1:12 PM 37.4 °F 28.5 °F 33.8 °F 87% 30.12 in 4.0 mi North 15.0 mph - 0.01 in Rain Light Rain
1:33 PM 37.4 °F 28.5 °F 35.6 °F 93% 30.12 in 5.0 mi North 15.0 mph - 0.01 in   Overcast
1:52 PM 37.4 °F 28.5 °F 35.6 °F 93% 30.12 in 7.0 mi North 15.0 mph - 0.01 in   Overcast
2:12 PM 37.4 °F 27.8 °F 35.6 °F 93% 30.12 in 10.0 mi North 17.3 mph - N/A   Overcast
2:32 PM 39.2 °F 31.2 °F 35.6 °F 87% 30.12 in 3.0 mi North 13.8 mph - 0.01 in   Light Drizzle
3:13 PM 39.2 °F 31.2 °F 35.6 °F 87% 30.11 in 10.0 mi North 13.8 mph - N/A   Overcast
3:32 PM 39.2 °F 32.0 °F 35.6 °F 87% 30.11 in 10.0 mi North 11.5 mph 17.3 mph N/A   Overcast
3:52 PM 39.2 °F 30.8 °F 35.6 °F 87% 30.12 in 10.0 mi North 15.0 mph - N/A   Overcast
4:13 PM 41.0 °F 35.2 °F 35.6 °F 81% 30.12 in 10.0 mi North 9.2 mph - N/A   Overcast
4:32 PM 41.0 °F 34.3 °F 35.6 °F 81% 30.12 in 7.0 mi North 11.5 mph 17.3 mph N/A   Overcast
4:52 PM 41.0 °F 35.2 °F 37.4 °F 87% 30.12 in 7.0 mi North 9.2 mph - N/A   Overcast
5:12 PM 41.0 °F 33.9 °F 37.4 °F 87% 30.12 in 7.0 mi North 12.7 mph 18.4 mph N/A   Overcast
5:32 PM 41.0 °F 33.5 °F 37.4 °F 87% 30.12 in 5.0 mi North 13.8 mph 19.6 mph N/A   Overcast
5:53 PM 41.0 °F 34.3 °F 37.4 °F 87% 30.11 in 5.0 mi North 11.5 mph 17.3 mph N/A   Overcast
6:12 PM 41.0 °F 33.5 °F 37.4 °F 87% 30.12 in 3.0 mi North 13.8 mph - N/A   Overcast
6:32 PM 41.0 °F 33.5 °F 37.4 °F 87% 30.12 in 7.0 mi North 13.8 mph 17.3 mph N/A   Overcast
6:53 PM 41.0 °F 34.3 °F 37.4 °F 87% 30.12 in 7.0 mi North 11.5 mph 17.3 mph N/A   Overcast
7:12 PM 41.0 °F 33.5 °F 37.4 °F 87% 30.13 in 7.0 mi North 13.8 mph 18.4 mph N/A   Overcast
7:32 PM 41.0 °F 34.7 °F 37.4 °F 87% 30.13 in 7.0 mi North 10.4 mph 17.3 mph N/A   Overcast
7:52 PM 41.0 °F 34.7 °F 37.4 °F 87% 30.14 in 2.0 mi North 10.4 mph - N/A   Overcast
8:12 PM 39.2 °F 31.2 °F 37.4 °F 93% 30.15 in 1.0 mi North 13.8 mph - N/A   Overcast
8:33 PM 39.2 °F 33.0 °F 37.4 °F 93% 30.15 in 1.2 mi North 9.2 mph - N/A   Overcast
8:52 PM 39.2 °F 33.6 °F 37.4 °F 93% 30.15 in 0.8 mi North 8.1 mph - N/A   Overcast
9:13 PM 39.2 °F 33.6 °F 37.4 °F 93% 30.15 in 1.0 mi North 8.1 mph - N/A   Overcast
9:32 PM 39.2 °F 34.2 °F 37.4 °F 93% 30.15 in 0.8 mi North 6.9 mph - N/A   Overcast
9:52 PM 39.2 °F 31.6 °F 37.4 °F 93% 30.16 in 0.8 mi North 12.7 mph 17.3 mph N/A   Overcast
10:13 PM 39.2 °F 34.2 °F 37.4 °F 93% 30.16 in 0.8 mi North 6.9 mph - N/A   Overcast
10:32 PM 39.2 °F 34.2 °F 37.4 °F 93% 30.16 in 0.8 mi North 6.9 mph - N/A   Overcast
10:53 PM 39.2 °F 32.5 °F 37.4 °F 93% 30.16 in 0.8 mi North 10.4 mph - N/A   Overcast
11:12 PM 39.2 °F 33.6 °F 37.4 °F 93% 30.16 in 0.8 mi North 8.1 mph - N/A   Overcast
11:32 PM 39.2 °F 33.0 °F 37.4 °F 93% 30.16 in 0.5 mi North 9.2 mph - N/A   Unknown
11:53 PM 39.2 °F 34.2 °F 37.4 °F 93% 30.16 in 0.5 mi North 6.9 mph - N/A   Unknown